createdAt,value
2019-02-19T00:00:48.793Z,95696.2
2019-02-19T00:01:51.230Z,95697.6
2019-02-19T00:02:53.664Z,95695.3
2019-02-19T00:03:56.092Z,95700.4
2019-02-19T00:04:58.529Z,95704
2019-02-19T00:06:00.940Z,95697.6
2019-02-19T00:07:03.371Z,95700.4
2019-02-19T00:08:05.803Z,95704.3
2019-02-19T00:09:07.968Z,95699.3
2019-02-19T00:10:10.118Z,95698.4
2019-02-19T00:11:12.285Z,95700.8
2019-02-19T00:12:14.699Z,95700.8
2019-02-19T00:13:17.139Z,95703.1
2019-02-19T00:14:19.563Z,95705.2
2019-02-19T00:15:22.178Z,95702.3
2019-02-19T00:16:24.314Z,95701.8
2019-02-19T00:17:26.743Z,95699.5
2019-02-19T00:18:28.928Z,95699.1
2019-02-19T00:19:31.345Z,95702.1
2019-02-19T00:20:33.775Z,95705
2019-02-19T00:21:35.939Z,95702.6
2019-02-19T00:22:38.362Z,95700.9
2019-02-19T00:23:40.835Z,95705.7
2019-02-19T00:24:43.249Z,95709.2
2019-02-19T00:25:45.409Z,95706.2
2019-02-19T00:26:47.579Z,95708.7
2019-02-19T00:27:49.751Z,95707.3
2019-02-19T00:28:52.198Z,95708.2
2019-02-19T00:29:54.619Z,95709.7
2019-02-19T00:30:56.779Z,95708.6
2019-02-19T00:31:58.956Z,95709.5
2019-02-19T00:33:01.387Z,95711
2019-02-19T00:34:03.814Z,95708
2019-02-19T00:35:05.978Z,95713
2019-02-19T00:36:08.133Z,95713
2019-02-19T00:37:10.286Z,95708.8
2019-02-19T00:38:12.735Z,95710
2019-02-19T00:39:14.894Z,95703.6
2019-02-19T00:40:17.323Z,95706.7
2019-02-19T00:41:19.501Z,95705.2
2019-02-19T00:42:21.671Z,95704.1
2019-02-19T00:43:24.104Z,95704.9
2019-02-19T00:44:26.290Z,95705.8
2019-02-19T00:45:28.425Z,95702.7
2019-02-19T00:46:30.853Z,95703.6
2019-02-19T00:47:33.031Z,95700.7
2019-02-19T00:48:34.894Z,95707.1
2019-02-19T00:49:37.323Z,95702.9
2019-02-19T00:50:39.745Z,95702.5
2019-02-19T00:51:41.640Z,95700.8
2019-02-19T00:52:44.064Z,95701.3
2019-02-19T00:53:46.515Z,95701.3
2019-02-19T00:54:48.951Z,95705.5
2019-02-19T00:55:51.385Z,95701.4
2019-02-19T00:56:53.811Z,95701.4
2019-02-19T00:57:57.696Z,95704.8
2019-02-19T00:58:59.853Z,95700.5
2019-02-19T01:00:02.273Z,95706.9
2019-02-19T01:01:04.693Z,95704
2019-02-19T01:02:06.831Z,95707
2019-02-19T01:03:08.995Z,95702.8
2019-02-19T01:04:11.995Z,95706.9
2019-02-19T01:05:14.163Z,95707.6
2019-02-19T01:06:16.311Z,95708.7
2019-02-19T01:07:18.476Z,95702.4
2019-02-19T01:08:20.893Z,95704.4
2019-02-19T01:09:23.036Z,95704.5
2019-02-19T01:10:24.924Z,95704.9
2019-02-19T01:11:26.818Z,95701.3
2019-02-19T01:12:29.235Z,95705.2
2019-02-19T01:13:31.390Z,95701.7
2019-02-19T01:14:33.840Z,95700.5
2019-02-19T01:15:36.281Z,95705.3
2019-02-19T01:16:38.713Z,95702.6
2019-02-19T01:17:41.152Z,95703.2
2019-02-19T01:18:43.072Z,95698.9
2019-02-19T01:19:45.492Z,95697.8
2019-02-19T01:20:47.931Z,95700.4
2019-02-19T01:21:50.103Z,95704.5
2019-02-19T01:22:52.283Z,95700.5
2019-02-19T01:23:53.875Z,95696
2019-02-19T01:24:56.285Z,95697.1
2019-02-19T01:25:58.713Z,95700.2
2019-02-19T01:27:01.133Z,95701.9
2019-02-19T01:28:03.552Z,95698.4
2019-02-19T01:29:05.721Z,95699.8
2019-02-19T01:30:07.895Z,95697.8
2019-02-19T01:31:10.051Z,95700.5
2019-02-19T01:32:12.473Z,95700.5
2019-02-19T01:33:14.639Z,95697.5
2019-02-19T01:34:16.560Z,95698.6
2019-02-19T01:35:19.000Z,95697.5
2019-02-19T01:36:22.064Z,95697.3
2019-02-19T01:37:23.898Z,95698.1
2019-02-19T01:38:25.777Z,95695.4
2019-02-19T01:39:27.645Z,95696.7
2019-02-19T01:40:30.676Z,95698.8
2019-02-19T01:41:32.841Z,95700.8
2019-02-19T01:42:34.982Z,95701.4
2019-02-19T01:43:37.156Z,95699.2
2019-02-19T01:44:39.307Z,95699.3
2019-02-19T01:45:41.454Z,95695.9
2019-02-19T01:46:43.621Z,95700.4
2019-02-19T01:47:45.780Z,95702.9
2019-02-19T01:48:48.214Z,95701.1
2019-02-19T01:49:50.083Z,95701.5
2019-02-19T01:50:52.228Z,95697.3
2019-02-19T01:51:54.390Z,95698.6
2019-02-19T01:52:56.822Z,95696.5
2019-02-19T01:53:58.989Z,95698.4
2019-02-19T01:55:01.420Z,95698.6
2019-02-19T01:56:03.583Z,95699.6
2019-02-19T01:57:05.464Z,95699.7
2019-02-19T01:58:07.623Z,95696.6
2019-02-19T01:59:09.522Z,95698.4
2019-02-19T02:00:11.964Z,95695.7
2019-02-19T02:01:14.116Z,95694.7
2019-02-19T02:02:16.540Z,95700.9
2019-02-19T02:03:18.962Z,95701.4
2019-02-19T02:04:20.824Z,95700.6
2019-02-19T02:05:23.250Z,95699.4
2019-02-19T02:06:25.686Z,95698.3
2019-02-19T02:07:27.856Z,95698.8
2019-02-19T02:08:30.287Z,95702.8
2019-02-19T02:09:32.174Z,95698.9
2019-02-19T02:10:34.341Z,95697.6
2019-02-19T02:11:36.511Z,95695.2
2019-02-19T02:12:38.928Z,95696.8
2019-02-19T02:13:40.818Z,95698.4
2019-02-19T02:14:42.994Z,95697.6
2019-02-19T02:15:45.150Z,95702.1
2019-02-19T02:16:47.302Z,95698.2
2019-02-19T02:17:49.727Z,95695
2019-02-19T02:18:52.147Z,95699.9
2019-02-19T02:19:54.575Z,95696.4
2019-02-19T02:20:56.734Z,95698.3
2019-02-19T02:21:59.163Z,95703.1
2019-02-19T02:23:01.303Z,95703.5
2019-02-19T02:24:03.460Z,95700.4
2019-02-19T02:25:05.892Z,95703.4
2019-02-19T02:26:08.331Z,95698.8
2019-02-19T02:27:10.750Z,95705.7
2019-02-19T02:28:12.624Z,95700
2019-02-19T02:29:14.778Z,95701.4
2019-02-19T02:30:16.927Z,95700.8
2019-02-19T02:31:18.255Z,95702.4
2019-02-19T02:32:20.683Z,95708.4
2019-02-19T02:33:22.540Z,95705.5
2019-02-19T02:34:24.973Z,95704
2019-02-19T02:35:27.405Z,95707.3
2019-02-19T02:36:29.552Z,95707.1
2019-02-19T02:37:31.691Z,95705.6
2019-02-19T02:38:33.856Z,95705.2
2019-02-19T02:39:36.015Z,95703.7
2019-02-19T02:40:38.462Z,95705.1
2019-02-19T02:41:41.085Z,95706.3
2019-02-19T02:42:43.514Z,95707.2
2019-02-19T02:43:45.653Z,95711.5
2019-02-19T02:44:48.107Z,95708.3
2019-02-19T02:46:55.244Z,95712.6
2019-02-19T02:47:57.387Z,95713.8
2019-02-19T02:48:59.280Z,95715.4
2019-02-19T02:50:01.455Z,95716.7
2019-02-19T02:51:03.612Z,95715.8
2019-02-19T02:52:05.802Z,95714.7
2019-02-19T02:53:07.953Z,95716.7
2019-02-19T02:54:10.374Z,95716.1
2019-02-19T02:55:12.518Z,95717.3
2019-02-19T02:56:14.685Z,95722
2019-02-19T02:57:16.600Z,95719.2
2019-02-19T02:58:18.490Z,95722.4
2019-02-19T02:59:20.354Z,95721.5
2019-02-19T03:00:22.781Z,95720.2
2019-02-19T03:01:24.925Z,95723.2
2019-02-19T03:02:27.373Z,95727.4
2019-02-19T03:03:29.533Z,95725.3
2019-02-19T03:04:31.668Z,95725.4
2019-02-19T03:05:33.828Z,95728.8
2019-02-19T03:06:35.714Z,95726.8
2019-02-19T03:07:37.575Z,95724.8
2019-02-19T03:08:40.004Z,95727.8
2019-02-19T03:09:42.436Z,95731.2
2019-02-19T03:10:44.315Z,95732.9
2019-02-19T03:11:46.445Z,95734.3
2019-02-19T03:12:48.872Z,95733.3
2019-02-19T03:13:51.297Z,95734.6
2019-02-19T03:14:53.727Z,95734.1
2019-02-19T03:17:01.135Z,95734
2019-02-19T03:18:03.566Z,95738.6
2019-02-19T03:19:05.995Z,95738.3
2019-02-19T03:20:08.443Z,95732.6
2019-02-19T03:21:10.856Z,95735.4
2019-02-19T03:22:13.012Z,95736.2
2019-02-19T03:23:15.166Z,95737.8
2019-02-19T03:24:17.322Z,95738.5
2019-02-19T03:25:19.752Z,95738
2019-02-19T03:26:22.170Z,95739
2019-02-19T03:27:24.620Z,95740.6
2019-02-19T03:28:26.765Z,95738.6
2019-02-19T03:29:28.949Z,95740.1
2019-02-19T03:30:31.395Z,95740.8
2019-02-19T03:31:33.559Z,95743.6
2019-02-19T03:32:35.750Z,95741.4
2019-02-19T03:33:38.166Z,95741.6
2019-02-19T03:34:40.354Z,95741.2
2019-02-19T03:35:42.230Z,95742.2
2019-02-19T03:36:44.368Z,95743.5
2019-02-19T03:37:47.081Z,95745.9
2019-02-19T03:38:49.509Z,95746.9
2019-02-19T03:39:51.659Z,95744.8
2019-02-19T03:40:53.815Z,95746.1
2019-02-19T03:41:56.003Z,95747.1
2019-02-19T03:42:58.426Z,95749.2
2019-02-19T03:44:00.586Z,95753.3
2019-02-19T03:45:03.013Z,95751.5
2019-02-19T03:47:10.425Z,95757.2
2019-02-19T03:48:12.572Z,95758.2
2019-02-19T03:49:14.435Z,95756.8
2019-02-19T03:50:16.845Z,95756.2
2019-02-19T03:51:19.283Z,95754.7
2019-02-19T03:52:21.709Z,95762
2019-02-19T03:53:23.874Z,95761.3
2019-02-19T03:54:26.307Z,95761.7
2019-02-19T03:55:28.736Z,95764.5
2019-02-19T03:56:30.885Z,95765.3
2019-02-19T03:57:34.420Z,95765.1
2019-02-19T03:58:36.677Z,95763.4
2019-02-19T03:59:38.845Z,95764.9
2019-02-19T04:00:41.343Z,95771.1
2019-02-19T04:01:43.812Z,95771.8
2019-02-19T04:02:46.284Z,95768.4
2019-02-19T04:03:48.473Z,95773.6
2019-02-19T04:04:50.968Z,95775
2019-02-19T04:05:53.402Z,95771
2019-02-19T04:06:55.578Z,95775.7
2019-02-19T04:07:57.731Z,95770.5
2019-02-19T04:09:00.197Z,95769.9
2019-02-19T04:10:02.624Z,95776.4
2019-02-19T04:11:04.807Z,95771
2019-02-19T04:12:07.228Z,95772.9
2019-02-19T04:13:09.654Z,95772.9
2019-02-19T04:14:11.810Z,95777.2
2019-02-19T04:15:13.964Z,95780.5
2019-02-19T04:17:21.108Z,95779.8
2019-02-19T04:18:23.244Z,95780.5
2019-02-19T04:19:25.670Z,95785.6
2019-02-19T04:20:27.827Z,95783.3
2019-02-19T04:21:29.964Z,95786.4
2019-02-19T04:22:32.114Z,95784.8
2019-02-19T04:23:33.724Z,95788.2
2019-02-19T04:24:36.150Z,95787.2
2019-02-19T04:25:38.326Z,95785.7
2019-02-19T04:26:40.741Z,95784
2019-02-19T04:27:43.175Z,95781.8
2019-02-19T04:28:45.608Z,95783.6
2019-02-19T04:29:47.763Z,95782.6
2019-02-19T04:30:49.920Z,95786.6
2019-02-19T04:31:52.068Z,95782.3
2019-02-19T04:32:54.219Z,95787.3
2019-02-19T04:33:56.631Z,95784.5
2019-02-19T04:34:59.052Z,95786.9
2019-02-19T04:36:01.474Z,95788.3
2019-02-19T04:37:03.913Z,95781.9
2019-02-19T04:38:06.475Z,95787.4
2019-02-19T04:39:08.346Z,95789.7
2019-02-19T04:40:10.788Z,95787.7
2019-02-19T04:41:12.647Z,95789.7
2019-02-19T04:42:15.070Z,95787.4
2019-02-19T04:43:17.223Z,95787.3
2019-02-19T04:44:19.657Z,95789.9
2019-02-19T04:45:22.085Z,95789.6
2019-02-19T04:47:29.492Z,95783.2
2019-02-19T04:48:31.385Z,95781
2019-02-19T04:49:33.285Z,95787.2
2019-02-19T04:50:35.736Z,95782
2019-02-19T04:51:37.876Z,95778.6
2019-02-19T04:52:40.304Z,95781.7
2019-02-19T04:53:42.455Z,95778.4
2019-02-19T04:54:44.886Z,95780.6
2019-02-19T04:55:47.051Z,95778.7
2019-02-19T04:56:49.182Z,95777.8
2019-02-19T04:57:51.615Z,95781.7
2019-02-19T04:58:53.758Z,95779.8
2019-02-19T04:59:55.684Z,95779.3
2019-02-19T05:00:58.101Z,95775.1
2019-02-19T05:01:59.730Z,95777.8
2019-02-19T05:03:02.188Z,95774.7
2019-02-19T05:04:04.625Z,95775.3
2019-02-19T05:05:07.070Z,95774.4
2019-02-19T05:06:09.495Z,95776.4
2019-02-19T05:07:11.925Z,95777
2019-02-19T05:08:14.352Z,95779.6
2019-02-19T05:09:16.503Z,95776.1
2019-02-19T05:10:18.660Z,95776.3
2019-02-19T05:11:20.801Z,95779.5
2019-02-19T05:12:23.222Z,95777.1
2019-02-19T05:13:25.645Z,95776.7
2019-02-19T05:14:27.798Z,95772
2019-02-19T05:15:29.956Z,95772.3
2019-02-19T05:17:37.361Z,95773.9
2019-02-19T05:18:39.513Z,95773.9
2019-02-19T05:19:41.929Z,95777.3
2019-02-19T05:20:44.090Z,95774.7
2019-02-19T05:21:46.269Z,95776.9
2019-02-19T05:22:48.706Z,95774.6
2019-02-19T05:23:50.859Z,95777.5
2019-02-19T05:24:53.294Z,95781
2019-02-19T05:25:55.734Z,95781.1
2019-02-19T05:26:57.891Z,95781.8
2019-02-19T05:28:00.334Z,95785
2019-02-19T05:29:02.780Z,95784.4
2019-02-19T05:30:04.653Z,95786.8
2019-02-19T05:31:07.093Z,95788.9
2019-02-19T05:32:09.546Z,95787.7
2019-02-19T05:33:11.396Z,95790.6
2019-02-19T05:34:13.548Z,95788.6
2019-02-19T05:35:15.991Z,95791.7
2019-02-19T05:36:18.144Z,95796.8
2019-02-19T05:37:20.306Z,95792.4
2019-02-19T05:38:22.735Z,95794.6
2019-02-19T05:39:25.162Z,95792.7
2019-02-19T05:40:27.326Z,95798
2019-02-19T05:41:29.753Z,95795.5
2019-02-19T05:42:31.890Z,95797
2019-02-19T05:43:34.314Z,95801.7
2019-02-19T05:44:36.749Z,95806.3
2019-02-19T05:45:38.903Z,95805.2
2019-02-19T05:47:46.805Z,95811.8
2019-02-19T05:48:48.971Z,95808
2019-02-19T05:49:51.391Z,95807.9
2019-02-19T05:50:53.819Z,95804.8
2019-02-19T05:51:55.979Z,95807.9
2019-02-19T05:52:57.867Z,95807.3
2019-02-19T05:54:00.049Z,95804
2019-02-19T05:55:02.265Z,95806.5
2019-02-19T05:56:04.399Z,95807.3
2019-02-19T05:57:06.550Z,95807.1
2019-02-19T05:58:08.981Z,95800.7
2019-02-19T05:59:10.855Z,95805.5
2019-02-19T06:00:13.012Z,95807.1
2019-02-19T06:01:15.475Z,95811
2019-02-19T06:02:17.905Z,95808.2
2019-02-19T06:03:20.334Z,95811.8
2019-02-19T06:04:21.936Z,95810.5
2019-02-19T06:05:23.794Z,95808.4
2019-02-19T06:06:26.225Z,95811.7
2019-02-19T06:07:28.651Z,95809.6
2019-02-19T06:08:30.551Z,95809.9
2019-02-19T06:09:32.984Z,95814.1
2019-02-19T06:10:34.903Z,95812
2019-02-19T06:11:37.050Z,95815.2
2019-02-19T06:12:39.243Z,95812.8
2019-02-19T06:13:41.665Z,95816.2
2019-02-19T06:14:44.090Z,95816
2019-02-19T06:15:46.523Z,95816.1
2019-02-19T06:16:48.405Z,95814.6
2019-02-19T06:17:50.839Z,95813
2019-02-19T06:18:53.295Z,95811.8
2019-02-19T06:19:55.465Z,95812.8
2019-02-19T06:20:57.895Z,95815.5
2019-02-19T06:22:00.333Z,95815.1
2019-02-19T06:23:02.525Z,95816.8
2019-02-19T06:24:04.956Z,95817.6
2019-02-19T06:25:07.465Z,95817.5
2019-02-19T06:26:09.640Z,95819.3
2019-02-19T06:27:12.075Z,95823
2019-02-19T06:28:14.495Z,95819.3
2019-02-19T06:29:16.673Z,95822.7
2019-02-19T06:30:18.831Z,95824.3
2019-02-19T06:31:20.987Z,95829
2019-02-19T06:32:23.428Z,95828.1
2019-02-19T06:33:25.856Z,95829.4
2019-02-19T06:34:28.019Z,95828.7
2019-02-19T06:35:29.900Z,95827.6
2019-02-19T06:36:32.336Z,95831.3
2019-02-19T06:37:34.480Z,95830.8
2019-02-19T06:38:36.917Z,95833.3
2019-02-19T06:39:39.089Z,95833.4
2019-02-19T06:40:41.277Z,95831.7
2019-02-19T06:41:43.444Z,95834.6
2019-02-19T06:42:45.863Z,95838.2
2019-02-19T06:43:48.034Z,95834.9
2019-02-19T06:44:50.189Z,95840.3
2019-02-19T06:45:52.632Z,95836.3
2019-02-19T06:46:55.064Z,95836.7
2019-02-19T06:47:57.221Z,95840.7
2019-02-19T06:48:59.379Z,95840.7
2019-02-19T06:50:01.581Z,95838.1
2019-02-19T06:51:04.005Z,95841.8
2019-02-19T06:52:06.135Z,95844.8
2019-02-19T06:53:08.303Z,95847.2
2019-02-19T06:54:10.747Z,95850.4
2019-02-19T06:55:12.614Z,95848.7
2019-02-19T06:56:15.040Z,95849.2
2019-02-19T06:57:16.913Z,95847
2019-02-19T06:58:19.175Z,95845.1
2019-02-19T06:59:21.399Z,95849.8
2019-02-19T07:00:23.322Z,95845.3
2019-02-19T07:01:25.754Z,95845.4
2019-02-19T07:02:28.214Z,95850.5
2019-02-19T07:03:30.647Z,95852.9
2019-02-19T07:04:32.811Z,95848.3
2019-02-19T07:05:34.424Z,95852.3
2019-02-19T07:06:36.587Z,95853.4
2019-02-19T07:07:39.007Z,95848.9
2019-02-19T07:08:41.432Z,95850.8
2019-02-19T07:09:43.319Z,95857.8
2019-02-19T07:10:45.477Z,95852.4
2019-02-19T07:11:47.606Z,95853.5
2019-02-19T07:12:49.759Z,95847
2019-02-19T07:13:51.911Z,95846.4
2019-02-19T07:14:54.075Z,95844.8
2019-02-19T07:15:56.506Z,95849.6
2019-02-19T07:16:58.928Z,95847.6
2019-02-19T07:18:01.081Z,95850.6
2019-02-19T07:19:03.511Z,95849.2
2019-02-19T07:20:05.647Z,95851.3
2019-02-19T07:21:07.555Z,95847
2019-02-19T07:22:10.005Z,95846.9
2019-02-19T07:23:12.443Z,95849.5
2019-02-19T07:24:14.859Z,95847.1
2019-02-19T07:25:17.283Z,95845.6
2019-02-19T07:26:19.713Z,95848
2019-02-19T07:27:21.851Z,95843.7
2019-02-19T07:28:24.290Z,95847.2
2019-02-19T07:29:26.685Z,95847.8
2019-02-19T07:30:28.849Z,95846.3
2019-02-19T07:31:31.011Z,95846.1
2019-02-19T07:32:33.441Z,95846.1
2019-02-19T07:33:35.589Z,95845.7
2019-02-19T07:34:37.731Z,95844.7
2019-02-19T07:35:40.172Z,95845.7
2019-02-19T07:36:42.816Z,95847.2
2019-02-19T07:37:44.698Z,95847.6
2019-02-19T07:38:46.602Z,95850.4
2019-02-19T07:39:48.764Z,95848.9
2019-02-19T07:40:51.204Z,95849
2019-02-19T07:41:53.370Z,95847.6
2019-02-19T07:42:54.994Z,95848
2019-02-19T07:43:57.447Z,95846.9
2019-02-19T07:44:59.881Z,95847.9
2019-02-19T07:46:02.311Z,95843.6
2019-02-19T07:47:04.731Z,95845.3
2019-02-19T07:48:06.899Z,95846.6
2019-02-19T07:49:09.074Z,95847.8
2019-02-19T07:50:11.242Z,95844.7
2019-02-19T07:51:13.663Z,95844.5
2019-02-19T07:52:15.818Z,95844.3
2019-02-19T07:53:17.687Z,95841.4
2019-02-19T07:54:19.855Z,95841.8
2019-02-19T07:55:22.293Z,95848.6
2019-02-19T07:56:24.188Z,95845.4
2019-02-19T07:57:26.087Z,95844.5
2019-02-19T07:58:28.290Z,95846.4
2019-02-19T07:59:30.719Z,95847.8
2019-02-19T08:00:33.148Z,95848.8
2019-02-19T08:01:35.569Z,95845.9
2019-02-19T08:02:37.995Z,95848
2019-02-19T08:03:40.208Z,95843.5
2019-02-19T08:04:42.357Z,95846.2
2019-02-19T08:05:44.554Z,95844.7
2019-02-19T08:06:46.770Z,95839.9
2019-02-19T08:07:48.948Z,95844
2019-02-19T08:08:51.372Z,95844.7
2019-02-19T08:09:53.545Z,95838.4
2019-02-19T08:10:55.977Z,95842.5
2019-02-19T08:11:58.407Z,95841.8
2019-02-19T08:13:00.832Z,95844.5
2019-02-19T08:14:03.002Z,95845.5
2019-02-19T08:15:05.436Z,95843.1
2019-02-19T08:16:07.858Z,95846.2
2019-02-19T08:17:09.730Z,95847.3
2019-02-19T08:18:12.197Z,95847.7
2019-02-19T08:19:14.629Z,95847
2019-02-19T08:20:17.867Z,95848.3
2019-02-19T08:21:20.022Z,95844.3
2019-02-19T08:22:22.184Z,95844.3
2019-02-19T08:23:24.088Z,95843
2019-02-19T08:24:26.516Z,95842.4
2019-02-19T08:25:28.959Z,95846
2019-02-19T08:26:31.129Z,95842.3
2019-02-19T08:27:32.998Z,95843
2019-02-19T08:28:35.157Z,95842.8
2019-02-19T08:29:37.314Z,95844.4
2019-02-19T08:30:39.486Z,95844.6
2019-02-19T08:31:41.912Z,95845.8
2019-02-19T08:32:44.341Z,95843.9
2019-02-19T08:33:46.787Z,95847.1
2019-02-19T08:34:49.216Z,95845.5
2019-02-19T08:35:51.377Z,95851.2
2019-02-19T08:36:53.540Z,95850.8
2019-02-19T08:37:55.401Z,95848.4
2019-02-19T08:38:57.851Z,95844.6
2019-02-19T08:39:59.989Z,95843.8
2019-02-19T08:41:02.250Z,95843.9
2019-02-19T08:42:04.665Z,95848.4
2019-02-19T08:43:07.102Z,95847.9
2019-02-19T08:44:09.995Z,95843.5
2019-02-19T08:45:12.435Z,95847.2
2019-02-19T08:46:14.883Z,95851.9
2019-02-19T08:47:17.315Z,95848.5
2019-02-19T08:48:19.741Z,95849
2019-02-19T08:49:22.165Z,95849.6
2019-02-19T08:50:24.330Z,95844.3
2019-02-19T08:51:26.498Z,95852.1
2019-02-19T08:52:28.929Z,95846.7
2019-02-19T08:53:31.358Z,95847.5
2019-02-19T08:54:33.264Z,95844.9
2019-02-19T08:55:36.425Z,95850
2019-02-19T08:56:38.617Z,95842.5
2019-02-19T08:57:41.050Z,95849.6
2019-02-19T08:58:43.479Z,95839.8
2019-02-19T08:59:45.634Z,95838.9
2019-02-19T09:00:48.081Z,95842.8
2019-02-19T09:01:50.231Z,95843
2019-02-19T09:02:52.907Z,95844.8
2019-02-19T09:03:55.356Z,95845.1
2019-02-19T09:04:57.798Z,95847.1
2019-02-19T09:06:00.243Z,95843.8
2019-02-19T09:07:02.403Z,95841.7
2019-02-19T09:08:04.844Z,95842.6
2019-02-19T09:09:07.014Z,95841.8
2019-02-19T09:10:09.162Z,95846.1
2019-02-19T09:11:11.599Z,95846.8
2019-02-19T09:12:13.738Z,95841.2
2019-02-19T09:13:16.175Z,95845.3
2019-02-19T09:14:18.594Z,95842.7
2019-02-19T09:15:21.057Z,95846
2019-02-19T09:16:23.220Z,95844
2019-02-19T09:17:25.381Z,95844
2019-02-19T09:18:27.544Z,95840.1
2019-02-19T09:19:29.783Z,95842.9
2019-02-19T09:20:31.954Z,95843.4
2019-02-19T09:21:34.383Z,95846.7
2019-02-19T09:22:36.244Z,95849.2
2019-02-19T09:23:38.736Z,95848.2
2019-02-19T09:24:41.202Z,95852.8
2019-02-19T09:25:43.358Z,95851.1
2019-02-19T09:26:45.499Z,95851.9
2019-02-19T09:27:47.656Z,95855.1
2019-02-19T09:28:50.003Z,95859.9
2019-02-19T09:29:51.886Z,95859.6
2019-02-19T09:30:54.327Z,95856.3
2019-02-19T09:31:56.196Z,95853
2019-02-19T09:32:58.634Z,95847.2
2019-02-19T09:34:00.786Z,95851.9
2019-02-19T09:35:02.915Z,95855.8
2019-02-19T09:36:05.342Z,95853.3
2019-02-19T09:37:07.230Z,95852.8
2019-02-19T09:38:09.664Z,95852.9
2019-02-19T09:39:11.842Z,95850.2
2019-02-19T09:40:14.262Z,95851.3
2019-02-19T09:41:16.696Z,95852.6
2019-02-19T09:42:19.125Z,95854.1
2019-02-19T09:43:21.556Z,95850.1
2019-02-19T09:44:23.985Z,95852.2
2019-02-19T09:45:26.417Z,95853.6
2019-02-19T09:46:28.852Z,95852
2019-02-19T09:47:31.026Z,95856.7
2019-02-19T09:48:33.179Z,95854.8
2019-02-19T09:49:35.635Z,95850.2
2019-02-19T09:50:37.796Z,95856.1
2019-02-19T09:51:40.225Z,95854.2
2019-02-19T09:52:42.373Z,95851.4
2019-02-19T09:53:44.796Z,95853.8
2019-02-19T09:54:46.956Z,95850.5
2019-02-19T09:55:49.414Z,95855.8
2019-02-19T09:56:51.843Z,95849.2
2019-02-19T09:57:54.275Z,95858
2019-02-19T09:58:56.699Z,95854.6
2019-02-19T09:59:58.035Z,95853.5
2019-02-19T10:01:00.530Z,95855.6
2019-02-19T10:02:03.014Z,95854.4
2019-02-19T10:03:05.188Z,95861.3
2019-02-19T10:04:07.608Z,95854.1
2019-02-19T10:05:10.035Z,95856.4
2019-02-19T10:06:12.184Z,95856.8
2019-02-19T10:07:14.080Z,95857.5
2019-02-19T10:08:16.513Z,95857.7
2019-02-19T10:09:18.953Z,95856.9
2019-02-19T10:10:21.096Z,95856.7
2019-02-19T10:11:23.253Z,95857.9
2019-02-19T10:12:25.406Z,95856
2019-02-19T10:13:27.842Z,95858
2019-02-19T10:14:30.281Z,95850.8
2019-02-19T10:15:32.422Z,95853.3
2019-02-19T10:17:39.830Z,95855.2
2019-02-19T10:18:42.258Z,95853.4
2019-02-19T10:19:44.685Z,95856
2019-02-19T10:20:47.122Z,95856.1
2019-02-19T10:21:49.293Z,95857.3
2019-02-19T10:22:51.172Z,95857
2019-02-19T10:23:53.323Z,95862.3
2019-02-19T10:24:55.757Z,95859.5
2019-02-19T10:25:58.195Z,95859.7
2019-02-19T10:27:00.606Z,95859.3
2019-02-19T10:28:03.038Z,95861.5
2019-02-19T10:29:05.464Z,95853.4
2019-02-19T10:30:07.891Z,95854.9
2019-02-19T10:31:10.327Z,95856.6
2019-02-19T10:32:12.476Z,95853.5
2019-02-19T10:33:14.905Z,95852.8
2019-02-19T10:34:17.335Z,95852.6
2019-02-19T10:35:19.782Z,95850.9
2019-02-19T10:36:21.954Z,95852.3
2019-02-19T10:37:24.396Z,95851.1
2019-02-19T10:38:26.564Z,95851.3
2019-02-19T10:39:29.015Z,95851.6
2019-02-19T10:40:31.176Z,95850.6
2019-02-19T10:41:33.330Z,95852.3
2019-02-19T10:42:35.763Z,95848.8
2019-02-19T10:43:37.925Z,95844.5
2019-02-19T10:44:40.350Z,95847.9
2019-02-19T10:45:42.770Z,95854.7
2019-02-19T10:46:44.923Z,95851.9
2019-02-19T10:47:47.357Z,95854.3
2019-02-19T10:48:49.484Z,95852.6
2019-02-19T10:49:51.928Z,95849.8
2019-02-19T10:50:54.096Z,95854.8
2019-02-19T10:51:56.524Z,95849.2
2019-02-19T10:52:58.428Z,95854.9
2019-02-19T10:54:00.870Z,95854.4
2019-02-19T10:55:03.294Z,95856.3
2019-02-19T10:56:05.743Z,95852.8
2019-02-19T10:57:08.172Z,95855.7
2019-02-19T10:58:12.092Z,95852.1
2019-02-19T10:59:14.512Z,95853.6
2019-02-19T11:00:16.924Z,95853.9
2019-02-19T11:01:18.806Z,95849.7
2019-02-19T11:02:21.243Z,95851.1
2019-02-19T11:03:23.702Z,95850.8
2019-02-19T11:04:26.121Z,95851.2
2019-02-19T11:05:28.570Z,95850.2
2019-02-19T11:06:31.031Z,95847.9
2019-02-19T11:07:33.464Z,95847
2019-02-19T11:08:35.612Z,95847.4
2019-02-19T11:09:37.771Z,95846.8
2019-02-19T11:10:40.213Z,95847.7
2019-02-19T11:11:42.671Z,95844.1
2019-02-19T11:12:43.989Z,95842.2
2019-02-19T11:13:45.917Z,95844.5
2019-02-19T11:14:48.343Z,95844.6
2019-02-19T11:15:50.771Z,95844
2019-02-19T11:16:53.194Z,95838
2019-02-19T11:17:55.339Z,95843.7
2019-02-19T11:18:57.762Z,95844.8
2019-02-19T11:19:59.920Z,95843.3
2019-02-19T11:21:02.284Z,95840.7
2019-02-19T11:22:04.757Z,95841.7
2019-02-19T11:23:07.206Z,95838
2019-02-19T11:24:09.667Z,95841.3
2019-02-19T11:25:12.095Z,95837.8
2019-02-19T11:26:13.965Z,95835.2
2019-02-19T11:27:18.249Z,95834.5
2019-02-19T11:28:20.694Z,95832.1
2019-02-19T11:29:22.877Z,95838.1
2019-02-19T11:30:25.044Z,95839.8
2019-02-19T11:31:27.472Z,95837.6
2019-02-19T11:32:29.906Z,95839.8
2019-02-19T11:33:32.336Z,95834.5
2019-02-19T11:34:34.783Z,95838
2019-02-19T11:35:36.924Z,95838.6
2019-02-19T11:36:39.378Z,95833.6
2019-02-19T11:37:41.817Z,95839
2019-02-19T11:38:44.269Z,95835.9
2019-02-19T11:39:46.157Z,95833.9
2019-02-19T11:40:48.591Z,95831.8
2019-02-19T11:41:50.764Z,95834.3
2019-02-19T11:42:53.200Z,95828.8
2019-02-19T11:43:55.626Z,95831.2
2019-02-19T11:44:57.771Z,95829.7
2019-02-19T11:45:59.924Z,95833.4
2019-02-19T11:47:02.353Z,95830.4
2019-02-19T11:48:04.566Z,95834.2
2019-02-19T11:49:06.998Z,95831.5
2019-02-19T11:50:09.440Z,95834.5
2019-02-19T11:51:11.328Z,95830
2019-02-19T11:52:13.761Z,95831.3
2019-02-19T11:53:16.190Z,95833.9
2019-02-19T11:54:18.610Z,95829.8
2019-02-19T11:55:21.057Z,95827.9
2019-02-19T11:56:23.221Z,95828.7
2019-02-19T11:57:25.639Z,95824.6
2019-02-19T11:58:28.065Z,95825
2019-02-19T11:59:30.244Z,95820.3
2019-02-19T12:00:32.711Z,95817.4
2019-02-19T12:01:34.858Z,95817.8
2019-02-19T12:02:37.027Z,95814.9
2019-02-19T12:03:39.458Z,95815.8
2019-02-19T12:04:41.894Z,95816.6
2019-02-19T12:05:44.342Z,95813.4
2019-02-19T12:06:46.796Z,95816.8
2019-02-19T12:07:48.944Z,95814.8
2019-02-19T12:08:51.372Z,95813.8
2019-02-19T12:09:53.551Z,95809.4
2019-02-19T12:10:55.991Z,95814.1
2019-02-19T12:11:57.581Z,95806.8
2019-02-19T12:12:59.766Z,95810.8
2019-02-19T12:14:02.196Z,95809.1
2019-02-19T12:15:04.366Z,95810.3
2019-02-19T12:16:06.538Z,95808.9
2019-02-19T12:17:08.674Z,95808.1
2019-02-19T12:18:11.093Z,95809.9
2019-02-19T12:19:13.529Z,95809.2
2019-02-19T12:20:15.968Z,95809.7
2019-02-19T12:21:18.404Z,95812.5
2019-02-19T12:22:20.825Z,95806.9
2019-02-19T12:23:23.293Z,95810.7
2019-02-19T12:24:25.727Z,95807.1
2019-02-19T12:25:28.173Z,95811.3
2019-02-19T12:26:29.794Z,95805.4
2019-02-19T12:27:31.936Z,95806.1
2019-02-19T12:28:34.110Z,95800.1
2019-02-19T12:29:36.548Z,95806.8
2019-02-19T12:30:39.051Z,95801.6
2019-02-19T12:31:41.485Z,95803
2019-02-19T12:32:43.625Z,95800.6
2019-02-19T12:33:46.066Z,95797
2019-02-19T12:34:48.486Z,95794.3
2019-02-19T12:35:50.645Z,95788.4
2019-02-19T12:36:52.827Z,95788.3
2019-02-19T12:37:54.963Z,95788.2
2019-02-19T12:38:57.394Z,95789.6
2019-02-19T12:39:59.857Z,95782.4
2019-02-19T12:41:02.310Z,95789.4
2019-02-19T12:42:04.204Z,95786.8
2019-02-19T12:43:06.336Z,95784.7
2019-02-19T12:44:08.499Z,95779.9
2019-02-19T12:45:10.934Z,95778.7
2019-02-19T12:46:13.370Z,95780.2
2019-02-19T12:47:15.859Z,95782.1